sensor_id;sensor_type;location;lat;lon;timestamp;P1;durP1;ratioP1;P2;durP2;ratioP2
30892;SDS011;17595;50.884;4.346;2022-11-20T00:01:22;44.45;;;25.67;;
30892;SDS011;17595;50.884;4.346;2022-11-20T00:03:51;41.72;;;26.10;;
30892;SDS011;17595;50.884;4.346;2022-11-20T00:06:19;41.45;;;25.58;;
30892;SDS011;17595;50.884;4.346;2022-11-20T00:08:46;46.17;;;26.52;;
30892;SDS011;17595;50.884;4.346;2022-11-20T00:11:16;45.45;;;27.30;;
30892;SDS011;17595;50.884;4.346;2022-11-20T00:13:47;47.38;;;27.38;;
30892;SDS011;17595;50.884;4.346;2022-11-20T00:16:15;49.63;;;28.38;;
30892;SDS011;17595;50.884;4.346;2022-11-20T00:18:43;52.17;;;28.60;;
30892;SDS011;17595;50.884;4.346;2022-11-20T00:21:13;48.67;;;29.30;;
30892;SDS011;17595;50.884;4.346;2022-11-20T00:23:44;51.30;;;29.58;;
30892;SDS011;17595;50.884;4.346;2022-11-20T00:26:10;53.97;;;29.40;;
30892;SDS011;17595;50.884;4.346;2022-11-20T00:28:41;51.50;;;29.05;;
30892;SDS011;17595;50.884;4.346;2022-11-20T00:31:12;49.78;;;29.27;;
30892;SDS011;17595;50.884;4.346;2022-11-20T00:33:39;48.85;;;29.75;;
30892;SDS011;17595;50.884;4.346;2022-11-20T00:36:07;49.58;;;29.63;;
30892;SDS011;17595;50.884;4.346;2022-11-20T00:38:38;49.25;;;29.27;;
30892;SDS011;17595;50.884;4.346;2022-11-20T00:41:05;51.42;;;28.77;;
30892;SDS011;17595;50.884;4.346;2022-11-20T00:43:32;48.90;;;28.92;;
30892;SDS011;17595;50.884;4.346;2022-11-20T00:45:58;56.58;;;28.60;;
30892;SDS011;17595;50.884;4.346;2022-11-20T00:48:25;52.85;;;30.40;;
30892;SDS011;17595;50.884;4.346;2022-11-20T00:50:51;52.55;;;30.65;;
30892;SDS011;17595;50.884;4.346;2022-11-20T00:53:16;56.72;;;30.45;;
30892;SDS011;17595;50.884;4.346;2022-11-20T00:55:42;51.65;;;30.35;;
30892;SDS011;17595;50.884;4.346;2022-11-20T00:58:08;49.83;;;30.13;;
30892;SDS011;17595;50.884;4.346;2022-11-20T01:00:33;53.03;;;30.55;;
30892;SDS011;17595;50.884;4.346;2022-11-20T01:02:59;49.95;;;30.33;;
30892;SDS011;17595;50.884;4.346;2022-11-20T01:05:25;51.13;;;29.88;;
30892;SDS011;17595;50.884;4.346;2022-11-20T01:07:50;50.67;;;29.05;;
30892;SDS011;17595;50.884;4.346;2022-11-20T01:10:16;49.13;;;30.33;;
30892;SDS011;17595;50.884;4.346;2022-11-20T01:12:42;51.30;;;30.40;;
30892;SDS011;17595;50.884;4.346;2022-11-20T01:15:07;55.75;;;30.42;;
30892;SDS011;17595;50.884;4.346;2022-11-20T01:17:33;51.00;;;29.70;;
30892;SDS011;17595;50.884;4.346;2022-11-20T01:19:59;51.17;;;30.95;;
30892;SDS011;17595;50.884;4.346;2022-11-20T01:22:25;53.72;;;29.70;;
30892;SDS011;17595;50.884;4.346;2022-11-20T01:24:50;51.92;;;29.27;;
30892;SDS011;17595;50.884;4.346;2022-11-20T01:27:16;53.47;;;30.08;;
30892;SDS011;17595;50.884;4.346;2022-11-20T01:29:41;49.28;;;29.55;;
30892;SDS011;17595;50.884;4.346;2022-11-20T01:32:07;52.15;;;31.08;;
30892;SDS011;17595;50.884;4.346;2022-11-20T01:34:32;54.95;;;29.67;;
30892;SDS011;17595;50.884;4.346;2022-11-20T01:36:58;54.50;;;31.55;;
30892;SDS011;17595;50.884;4.346;2022-11-20T01:39:24;48.72;;;30.00;;
30892;SDS011;17595;50.884;4.346;2022-11-20T01:41:51;52.35;;;30.15;;
30892;SDS011;17595;50.884;4.346;2022-11-20T01:44:54;49.45;;;29.70;;
30892;SDS011;17595;50.884;4.346;2022-11-20T01:50:06;55.22;;;30.48;;
30892;SDS011;17595;50.884;4.346;2022-11-20T01:52:48;49.65;;;31.15;;
30892;SDS011;17595;50.884;4.346;2022-11-20T01:55:20;59.50;;;31.90;;
30892;SDS011;17595;50.884;4.346;2022-11-20T01:57:48;55.33;;;30.13;;
30892;SDS011;17595;50.884;4.346;2022-11-20T02:00:15;55.75;;;30.77;;
30892;SDS011;17595;50.884;4.346;2022-11-20T02:02:44;55.35;;;32.50;;
30892;SDS011;17595;50.884;4.346;2022-11-20T02:05:28;53.58;;;31.27;;
30892;SDS011;17595;50.884;4.346;2022-11-20T02:08:03;55.78;;;32.72;;
30892;SDS011;17595;50.884;4.346;2022-11-20T02:10:30;59.45;;;32.63;;
30892;SDS011;17595;50.884;4.346;2022-11-20T02:12:56;54.55;;;30.70;;
30892;SDS011;17595;50.884;4.346;2022-11-20T02:15:42;56.88;;;31.35;;
30892;SDS011;17595;50.884;4.346;2022-11-20T02:18:08;53.85;;;31.90;;
30892;SDS011;17595;50.884;4.346;2022-11-20T02:20:35;49.60;;;30.33;;
30892;SDS011;17595;50.884;4.346;2022-11-20T02:25:55;49.97;;;28.98;;
30892;SDS011;17595;50.884;4.346;2022-11-20T02:28:23;45.08;;;28.70;;
30892;SDS011;17595;50.884;4.346;2022-11-20T02:30:49;48.28;;;28.38;;
30892;SDS011;17595;50.884;4.346;2022-11-20T02:33:14;50.58;;;27.50;;
30892;SDS011;17595;50.884;4.346;2022-11-20T02:35:41;49.70;;;29.10;;
30892;SDS011;17595;50.884;4.346;2022-11-20T02:38:09;49.15;;;28.10;;
30892;SDS011;17595;50.884;4.346;2022-11-20T02:40:35;48.78;;;30.05;;
30892;SDS011;17595;50.884;4.346;2022-11-20T02:43:00;47.85;;;30.10;;
30892;SDS011;17595;50.884;4.346;2022-11-20T02:45:26;46.10;;;27.00;;
30892;SDS011;17595;50.884;4.346;2022-11-20T02:47:52;48.45;;;28.33;;
30892;SDS011;17595;50.884;4.346;2022-11-20T02:50:18;47.55;;;27.90;;
30892;SDS011;17595;50.884;4.346;2022-11-20T02:52:44;48.08;;;28.33;;
30892;SDS011;17595;50.884;4.346;2022-11-20T02:55:09;47.63;;;27.17;;
30892;SDS011;17595;50.884;4.346;2022-11-20T02:57:35;43.05;;;25.70;;
30892;SDS011;17595;50.884;4.346;2022-11-20T03:00:01;46.60;;;28.02;;
30892;SDS011;17595;50.884;4.346;2022-11-20T03:02:31;44.15;;;26.92;;
30892;SDS011;17595;50.884;4.346;2022-11-20T03:04:57;45.35;;;26.55;;
30892;SDS011;17595;50.884;4.346;2022-11-20T03:07:22;45.85;;;26.60;;
30892;SDS011;17595;50.884;4.346;2022-11-20T03:09:48;49.88;;;26.92;;
30892;SDS011;17595;50.884;4.346;2022-11-20T03:12:14;43.13;;;25.40;;
30892;SDS011;17595;50.884;4.346;2022-11-20T03:14:40;44.72;;;25.77;;
30892;SDS011;17595;50.884;4.346;2022-11-20T03:17:05;43.33;;;25.00;;
30892;SDS011;17595;50.884;4.346;2022-11-20T03:19:31;44.42;;;24.23;;
30892;SDS011;17595;50.884;4.346;2022-11-20T03:21:57;40.05;;;23.35;;
30892;SDS011;17595;50.884;4.346;2022-11-20T03:24:23;43.67;;;25.33;;
30892;SDS011;17595;50.884;4.346;2022-11-20T03:26:48;44.10;;;25.73;;
30892;SDS011;17595;50.884;4.346;2022-11-20T03:29:14;41.10;;;24.95;;
30892;SDS011;17595;50.884;4.346;2022-11-20T03:31:40;46.40;;;25.58;;
30892;SDS011;17595;50.884;4.346;2022-11-20T03:34:06;45.40;;;26.20;;
30892;SDS011;17595;50.884;4.346;2022-11-20T03:36:33;47.35;;;25.98;;
30892;SDS011;17595;50.884;4.346;2022-11-20T03:39:00;42.55;;;24.52;;
30892;SDS011;17595;50.884;4.346;2022-11-20T03:41:26;39.38;;;23.75;;
30892;SDS011;17595;50.884;4.346;2022-11-20T03:43:57;47.72;;;27.27;;
30892;SDS011;17595;50.884;4.346;2022-11-20T03:46:25;50.58;;;28.15;;
30892;SDS011;17595;50.884;4.346;2022-11-20T03:48:51;50.28;;;26.90;;
30892;SDS011;17595;50.884;4.346;2022-11-20T03:51:18;45.25;;;27.08;;
30892;SDS011;17595;50.884;4.346;2022-11-20T03:53:46;43.90;;;25.80;;
30892;SDS011;17595;50.884;4.346;2022-11-20T03:56:13;47.55;;;25.83;;
30892;SDS011;17595;50.884;4.346;2022-11-20T03:58:41;48.78;;;26.63;;
30892;SDS011;17595;50.884;4.346;2022-11-20T04:01:09;44.97;;;26.95;;
30892;SDS011;17595;50.884;4.346;2022-11-20T04:03:42;50.70;;;26.52;;
30892;SDS011;17595;50.884;4.346;2022-11-20T04:06:13;46.78;;;26.58;;
30892;SDS011;17595;50.884;4.346;2022-11-20T04:08:43;48.88;;;27.25;;
30892;SDS011;17595;50.884;4.346;2022-11-20T04:13:48;49.85;;;27.65;;
30892;SDS011;17595;50.884;4.346;2022-11-20T04:16:15;48.55;;;26.55;;
30892;SDS011;17595;50.884;4.346;2022-11-20T04:18:41;48.63;;;26.40;;
30892;SDS011;17595;50.884;4.346;2022-11-20T04:21:08;47.42;;;26.60;;
30892;SDS011;17595;50.884;4.346;2022-11-20T04:23:34;44.95;;;25.50;;
30892;SDS011;17595;50.884;4.346;2022-11-20T04:26:00;44.70;;;25.70;;
30892;SDS011;17595;50.884;4.346;2022-11-20T04:28:31;47.95;;;25.80;;
30892;SDS011;17595;50.884;4.346;2022-11-20T04:31:07;49.78;;;26.95;;
30892;SDS011;17595;50.884;4.346;2022-11-20T04:33:35;52.20;;;26.95;;
30892;SDS011;17595;50.884;4.346;2022-11-20T04:38:31;45.35;;;26.20;;
30892;SDS011;17595;50.884;4.346;2022-11-20T04:40:58;50.25;;;27.50;;
30892;SDS011;17595;50.884;4.346;2022-11-20T04:43:28;53.60;;;27.35;;
30892;SDS011;17595;50.884;4.346;2022-11-20T04:45:54;52.95;;;28.15;;
30892;SDS011;17595;50.884;4.346;2022-11-20T04:48:20;52.13;;;29.05;;
30892;SDS011;17595;50.884;4.346;2022-11-20T04:50:47;59.05;;;29.05;;
30892;SDS011;17595;50.884;4.346;2022-11-20T04:53:12;60.22;;;28.60;;
30892;SDS011;17595;50.884;4.346;2022-11-20T04:55:38;56.13;;;29.15;;
30892;SDS011;17595;50.884;4.346;2022-11-20T04:58:04;64.03;;;31.48;;
30892;SDS011;17595;50.884;4.346;2022-11-20T05:00:29;60.60;;;30.98;;
30892;SDS011;17595;50.884;4.346;2022-11-20T05:02:55;58.78;;;29.88;;
30892;SDS011;17595;50.884;4.346;2022-11-20T05:05:20;67.85;;;30.00;;
30892;SDS011;17595;50.884;4.346;2022-11-20T05:07:46;68.57;;;32.10;;
30892;SDS011;17595;50.884;4.346;2022-11-20T05:10:12;64.90;;;31.23;;
30892;SDS011;17595;50.884;4.346;2022-11-20T05:12:37;60.95;;;28.67;;
30892;SDS011;17595;50.884;4.346;2022-11-20T05:15:03;61.47;;;28.63;;
30892;SDS011;17595;50.884;4.346;2022-11-20T05:17:29;59.35;;;29.92;;
30892;SDS011;17595;50.884;4.346;2022-11-20T05:19:54;61.95;;;29.48;;
30892;SDS011;17595;50.884;4.346;2022-11-20T05:22:20;60.22;;;29.02;;
30892;SDS011;17595;50.884;4.346;2022-11-20T05:24:45;62.05;;;30.35;;
30892;SDS011;17595;50.884;4.346;2022-11-20T05:27:11;60.53;;;30.33;;
30892;SDS011;17595;50.884;4.346;2022-11-20T05:29:36;67.40;;;31.63;;
30892;SDS011;17595;50.884;4.346;2022-11-20T05:32:02;61.50;;;29.80;;
30892;SDS011;17595;50.884;4.346;2022-11-20T05:34:28;59.28;;;29.52;;
30892;SDS011;17595;50.884;4.346;2022-11-20T05:36:53;64.20;;;30.00;;
30892;SDS011;17595;50.884;4.346;2022-11-20T05:39:19;61.10;;;30.90;;
30892;SDS011;17595;50.884;4.346;2022-11-20T05:41:44;63.60;;;31.27;;
30892;SDS011;17595;50.884;4.346;2022-11-20T05:44:10;65.35;;;30.23;;
30892;SDS011;17595;50.884;4.346;2022-11-20T05:46:36;64.50;;;31.00;;
30892;SDS011;17595;50.884;4.346;2022-11-20T05:49:02;65.15;;;30.35;;
30892;SDS011;17595;50.884;4.346;2022-11-20T05:51:27;59.38;;;30.08;;
30892;SDS011;17595;50.884;4.346;2022-11-20T05:53:53;68.93;;;31.63;;
30892;SDS011;17595;50.884;4.346;2022-11-20T05:56:21;67.13;;;32.17;;
30892;SDS011;17595;50.884;4.346;2022-11-20T05:58:47;65.25;;;30.55;;
30892;SDS011;17595;50.884;4.346;2022-11-20T06:01:16;67.68;;;32.45;;
30892;SDS011;17595;50.884;4.346;2022-11-20T06:03:44;63.63;;;31.90;;
30892;SDS011;17595;50.884;4.346;2022-11-20T06:06:12;69.80;;;33.10;;
30892;SDS011;17595;50.884;4.346;2022-11-20T06:08:38;64.97;;;32.10;;
30892;SDS011;17595;50.884;4.346;2022-11-20T06:11:05;70.10;;;32.63;;
30892;SDS011;17595;50.884;4.346;2022-11-20T06:13:31;62.60;;;31.20;;
30892;SDS011;17595;50.884;4.346;2022-11-20T06:15:57;68.38;;;31.30;;
30892;SDS011;17595;50.884;4.346;2022-11-20T06:18:22;69.22;;;30.90;;
30892;SDS011;17595;50.884;4.346;2022-11-20T06:20:48;64.72;;;30.67;;
30892;SDS011;17595;50.884;4.346;2022-11-20T06:23:13;65.70;;;31.55;;
30892;SDS011;17595;50.884;4.346;2022-11-20T06:25:39;63.50;;;31.05;;
30892;SDS011;17595;50.884;4.346;2022-11-20T06:28:06;68.38;;;30.83;;
30892;SDS011;17595;50.884;4.346;2022-11-20T06:30:32;63.22;;;30.00;;
30892;SDS011;17595;50.884;4.346;2022-11-20T06:32:57;65.85;;;32.03;;
30892;SDS011;17595;50.884;4.346;2022-11-20T06:35:23;65.18;;;30.30;;
30892;SDS011;17595;50.884;4.346;2022-11-20T06:37:48;68.65;;;31.20;;
30892;SDS011;17595;50.884;4.346;2022-11-20T06:40:14;72.82;;;33.30;;
30892;SDS011;17595;50.884;4.346;2022-11-20T06:42:40;66.05;;;30.77;;
30892;SDS011;17595;50.884;4.346;2022-11-20T06:45:05;68.45;;;31.48;;
30892;SDS011;17595;50.884;4.346;2022-11-20T06:47:32;65.78;;;31.33;;
30892;SDS011;17595;50.884;4.346;2022-11-20T06:49:58;70.70;;;31.92;;
30892;SDS011;17595;50.884;4.346;2022-11-20T06:52:23;68.57;;;32.55;;
30892;SDS011;17595;50.884;4.346;2022-11-20T06:54:49;67.85;;;31.20;;
30892;SDS011;17595;50.884;4.346;2022-11-20T06:57:15;68.15;;;32.20;;
30892;SDS011;17595;50.884;4.346;2022-11-20T06:59:40;66.95;;;30.05;;
30892;SDS011;17595;50.884;4.346;2022-11-20T07:02:09;72.35;;;32.03;;
30892;SDS011;17595;50.884;4.346;2022-11-20T07:04:36;66.50;;;32.10;;
30892;SDS011;17595;50.884;4.346;2022-11-20T07:07:02;66.15;;;31.42;;
30892;SDS011;17595;50.884;4.346;2022-11-20T07:09:28;61.45;;;29.98;;
30892;SDS011;17595;50.884;4.346;2022-11-20T07:11:53;68.43;;;30.67;;
30892;SDS011;17595;50.884;4.346;2022-11-20T07:14:19;68.68;;;30.88;;
30892;SDS011;17595;50.884;4.346;2022-11-20T07:16:44;65.15;;;30.75;;
30892;SDS011;17595;50.884;4.346;2022-11-20T07:19:10;63.55;;;29.05;;
30892;SDS011;17595;50.884;4.346;2022-11-20T07:21:35;63.83;;;30.48;;
30892;SDS011;17595;50.884;4.346;2022-11-20T07:24:01;61.80;;;30.02;;
30892;SDS011;17595;50.884;4.346;2022-11-20T07:26:27;68.18;;;31.67;;
30892;SDS011;17595;50.884;4.346;2022-11-20T07:28:53;63.58;;;30.38;;
30892;SDS011;17595;50.884;4.346;2022-11-20T07:31:18;70.45;;;31.88;;
30892;SDS011;17595;50.884;4.346;2022-11-20T07:33:44;64.53;;;30.85;;
30892;SDS011;17595;50.884;4.346;2022-11-20T07:36:10;55.63;;;28.25;;
30892;SDS011;17595;50.884;4.346;2022-11-20T07:38:36;61.35;;;29.05;;
30892;SDS011;17595;50.884;4.346;2022-11-20T07:41:02;64.65;;;29.00;;
30892;SDS011;17595;50.884;4.346;2022-11-20T07:43:28;60.33;;;28.77;;
30892;SDS011;17595;50.884;4.346;2022-11-20T07:45:55;63.47;;;29.17;;
30892;SDS011;17595;50.884;4.346;2022-11-20T07:48:21;58.65;;;28.10;;
30892;SDS011;17595;50.884;4.346;2022-11-20T07:50:47;59.00;;;29.20;;
30892;SDS011;17595;50.884;4.346;2022-11-20T07:53:13;63.10;;;29.90;;
30892;SDS011;17595;50.884;4.346;2022-11-20T07:55:38;59.10;;;28.15;;
30892;SDS011;17595;50.884;4.346;2022-11-20T07:58:04;57.33;;;27.88;;
30892;SDS011;17595;50.884;4.346;2022-11-20T08:00:30;57.42;;;26.63;;
30892;SDS011;17595;50.884;4.346;2022-11-20T08:02:56;58.67;;;28.45;;
30892;SDS011;17595;50.884;4.346;2022-11-20T08:05:21;58.30;;;27.73;;
30892;SDS011;17595;50.884;4.346;2022-11-20T08:07:47;62.60;;;28.40;;
30892;SDS011;17595;50.884;4.346;2022-11-20T08:10:14;59.83;;;28.90;;
30892;SDS011;17595;50.884;4.346;2022-11-20T08:12:47;60.92;;;27.15;;
30892;SDS011;17595;50.884;4.346;2022-11-20T08:15:33;58.40;;;26.63;;
30892;SDS011;17595;50.884;4.346;2022-11-20T08:18:00;59.70;;;26.73;;
30892;SDS011;17595;50.884;4.346;2022-11-20T08:20:28;58.67;;;27.30;;
30892;SDS011;17595;50.884;4.346;2022-11-20T08:22:57;59.28;;;26.95;;
30892;SDS011;17595;50.884;4.346;2022-11-20T08:25:24;59.13;;;25.85;;
30892;SDS011;17595;50.884;4.346;2022-11-20T08:27:50;54.03;;;25.33;;
30892;SDS011;17595;50.884;4.346;2022-11-20T08:30:16;61.35;;;27.60;;
30892;SDS011;17595;50.884;4.346;2022-11-20T08:32:42;59.10;;;25.90;;
30892;SDS011;17595;50.884;4.346;2022-11-20T08:35:08;57.70;;;25.75;;
30892;SDS011;17595;50.884;4.346;2022-11-20T08:37:33;60.28;;;26.20;;
30892;SDS011;17595;50.884;4.346;2022-11-20T08:39:59;61.80;;;27.02;;
30892;SDS011;17595;50.884;4.346;2022-11-20T08:42:25;63.95;;;26.70;;
30892;SDS011;17595;50.884;4.346;2022-11-20T08:44:50;50.00;;;24.35;;
30892;SDS011;17595;50.884;4.346;2022-11-20T08:47:16;58.47;;;26.20;;
30892;SDS011;17595;50.884;4.346;2022-11-20T08:49:41;54.95;;;25.15;;
30892;SDS011;17595;50.884;4.346;2022-11-20T08:52:07;58.42;;;27.55;;
30892;SDS011;17595;50.884;4.346;2022-11-20T08:54:32;57.58;;;26.75;;
30892;SDS011;17595;50.884;4.346;2022-11-20T08:56:58;60.38;;;26.15;;
30892;SDS011;17595;50.884;4.346;2022-11-20T08:59:24;61.05;;;27.65;;
30892;SDS011;17595;50.884;4.346;2022-11-20T09:01:49;56.08;;;26.20;;
30892;SDS011;17595;50.884;4.346;2022-11-20T09:04:15;65.45;;;27.42;;
30892;SDS011;17595;50.884;4.346;2022-11-20T09:06:40;58.72;;;27.13;;
30892;SDS011;17595;50.884;4.346;2022-11-20T09:09:06;56.80;;;27.30;;
30892;SDS011;17595;50.884;4.346;2022-11-20T09:11:32;60.28;;;27.60;;
30892;SDS011;17595;50.884;4.346;2022-11-20T09:13:59;56.38;;;26.38;;
30892;SDS011;17595;50.884;4.346;2022-11-20T09:16:25;53.80;;;26.13;;
30892;SDS011;17595;50.884;4.346;2022-11-20T09:18:50;58.58;;;26.13;;
30892;SDS011;17595;50.884;4.346;2022-11-20T09:21:16;53.67;;;25.15;;
30892;SDS011;17595;50.884;4.346;2022-11-20T09:23:42;53.63;;;26.13;;
30892;SDS011;17595;50.884;4.346;2022-11-20T09:26:09;49.03;;;25.52;;
30892;SDS011;17595;50.884;4.346;2022-11-20T09:28:38;49.08;;;24.65;;
30892;SDS011;17595;50.884;4.346;2022-11-20T09:31:08;51.22;;;25.45;;
30892;SDS011;17595;50.884;4.346;2022-11-20T09:33:35;49.60;;;23.42;;
30892;SDS011;17595;50.884;4.346;2022-11-20T09:36:01;48.00;;;24.33;;
30892;SDS011;17595;50.884;4.346;2022-11-20T09:38:27;52.63;;;25.60;;
30892;SDS011;17595;50.884;4.346;2022-11-20T09:41:05;49.63;;;24.08;;
30892;SDS011;17595;50.884;4.346;2022-11-20T09:49:22;51.08;;;23.27;;
30892;SDS011;17595;50.884;4.346;2022-11-20T09:54:27;43.17;;;21.88;;
30892;SDS011;17595;50.884;4.346;2022-11-20T09:56:58;46.05;;;22.23;;
30892;SDS011;17595;50.884;4.346;2022-11-20T10:01:59;39.67;;;20.58;;
30892;SDS011;17595;50.884;4.346;2022-11-20T10:04:26;34.80;;;20.23;;
30892;SDS011;17595;50.884;4.346;2022-11-20T10:07:18;42.60;;;20.63;;
30892;SDS011;17595;50.884;4.346;2022-11-20T10:09:50;36.90;;;19.85;;
30892;SDS011;17595;50.884;4.346;2022-11-20T10:30:21;33.88;;;17.40;;
30892;SDS011;17595;50.884;4.346;2022-11-20T10:33:32;29.63;;;16.27;;
30892;SDS011;17595;50.884;4.346;2022-11-20T10:35:39;31.52;;;15.55;;
30892;SDS011;17595;50.884;4.346;2022-11-20T10:38:18;27.10;;;15.32;;
30892;SDS011;17595;50.884;4.346;2022-11-20T10:41:01;21.30;;;11.70;;
30892;SDS011;17595;50.884;4.346;2022-11-20T10:43:46;24.10;;;11.60;;
30892;SDS011;17595;50.884;4.346;2022-11-20T10:46:20;25.02;;;11.10;;
30892;SDS011;17595;50.884;4.346;2022-11-20T10:48:47;19.65;;;10.65;;
30892;SDS011;17595;50.884;4.346;2022-11-20T10:59:32;14.07;;;7.80;;
30892;SDS011;17595;50.884;4.346;2022-11-20T11:02:32;14.30;;;7.00;;
30892;SDS011;17595;50.884;4.346;2022-11-20T11:05:15;13.50;;;7.10;;
30892;SDS011;17595;50.884;4.346;2022-11-20T11:07:53;14.70;;;7.68;;
30892;SDS011;17595;50.884;4.346;2022-11-20T11:10:36;18.90;;;7.70;;
30892;SDS011;17595;50.884;4.346;2022-11-20T11:13:25;12.73;;;5.78;;
30892;SDS011;17595;50.884;4.346;2022-11-20T11:15:53;14.73;;;6.70;;
30892;SDS011;17595;50.884;4.346;2022-11-20T11:18:29;14.30;;;6.15;;
30892;SDS011;17595;50.884;4.346;2022-11-20T11:20:57;17.58;;;6.97;;
30892;SDS011;17595;50.884;4.346;2022-11-20T11:23:34;15.30;;;6.13;;
30892;SDS011;17595;50.884;4.346;2022-11-20T11:26:04;13.57;;;6.13;;
30892;SDS011;17595;50.884;4.346;2022-11-20T11:28:32;10.32;;;6.20;;
30892;SDS011;17595;50.884;4.346;2022-11-20T11:30:58;11.35;;;5.93;;
30892;SDS011;17595;50.884;4.346;2022-11-20T11:33:25;16.00;;;6.10;;
30892;SDS011;17595;50.884;4.346;2022-11-20T11:35:56;15.88;;;5.90;;
30892;SDS011;17595;50.884;4.346;2022-11-20T11:41:03;9.45;;;4.57;;
30892;SDS011;17595;50.884;4.346;2022-11-20T11:43:32;11.13;;;4.88;;
30892;SDS011;17595;50.884;4.346;2022-11-20T11:46:28;11.00;;;4.90;;
30892;SDS011;17595;50.884;4.346;2022-11-20T11:51:36;8.35;;;4.88;;
30892;SDS011;17595;50.884;4.346;2022-11-20T11:54:17;11.13;;;4.50;;
30892;SDS011;17595;50.884;4.346;2022-11-20T11:56:48;7.75;;;3.70;;
30892;SDS011;17595;50.884;4.346;2022-11-20T11:59:24;9.20;;;3.95;;
30892;SDS011;17595;50.884;4.346;2022-11-20T12:02:03;8.20;;;4.38;;
30892;SDS011;17595;50.884;4.346;2022-11-20T12:05:20;7.35;;;4.13;;
30892;SDS011;17595;50.884;4.346;2022-11-20T12:07:47;14.63;;;5.72;;
30892;SDS011;17595;50.884;4.346;2022-11-20T12:10:28;11.82;;;5.53;;
30892;SDS011;17595;50.884;4.346;2022-11-20T12:13:36;11.15;;;5.55;;
30892;SDS011;17595;50.884;4.346;2022-11-20T12:16:10;9.68;;;4.20;;
30892;SDS011;17595;50.884;4.346;2022-11-20T12:18:39;12.65;;;5.22;;
30892;SDS011;17595;50.884;4.346;2022-11-20T12:23:56;12.43;;;4.78;;
30892;SDS011;17595;50.884;4.346;2022-11-20T12:40:44;13.00;;;5.30;;
30892;SDS011;17595;50.884;4.346;2022-11-20T12:43:25;10.75;;;5.68;;
30892;SDS011;17595;50.884;4.346;2022-11-20T12:46:26;12.15;;;5.38;;
30892;SDS011;17595;50.884;4.346;2022-11-20T12:57:13;11.15;;;5.07;;
30892;SDS011;17595;50.884;4.346;2022-11-20T13:05:20;12.80;;;4.93;;
30892;SDS011;17595;50.884;4.346;2022-11-20T13:07:51;13.50;;;4.68;;
30892;SDS011;17595;50.884;4.346;2022-11-20T13:10:21;9.65;;;4.10;;
30892;SDS011;17595;50.884;4.346;2022-11-20T13:12:55;8.32;;;4.38;;
30892;SDS011;17595;50.884;4.346;2022-11-20T13:18:20;12.45;;;4.60;;
30892;SDS011;17595;50.884;4.346;2022-11-20T13:20:46;10.57;;;4.82;;
30892;SDS011;17595;50.884;4.346;2022-11-20T13:23:26;8.57;;;4.32;;
30892;SDS011;17595;50.884;4.346;2022-11-20T13:28:43;8.90;;;4.32;;
30892;SDS011;17595;50.884;4.346;2022-11-20T13:33:54;9.98;;;3.92;;
30892;SDS011;17595;50.884;4.346;2022-11-20T13:36:22;6.82;;;3.83;;
30892;SDS011;17595;50.884;4.346;2022-11-20T13:38:51;8.20;;;4.70;;
30892;SDS011;17595;50.884;4.346;2022-11-20T13:41:29;6.25;;;4.00;;
30892;SDS011;17595;50.884;4.346;2022-11-20T13:46:42;6.05;;;4.38;;
30892;SDS011;17595;50.884;4.346;2022-11-20T13:49:18;7.25;;;4.05;;
30892;SDS011;17595;50.884;4.346;2022-11-20T13:51:51;7.47;;;3.88;;
30892;SDS011;17595;50.884;4.346;2022-11-20T14:00:28;6.80;;;2.90;;
30892;SDS011;17595;50.884;4.346;2022-11-20T14:03:09;5.53;;;3.20;;
30892;SDS011;17595;50.884;4.346;2022-11-20T14:05:52;5.70;;;2.80;;
30892;SDS011;17595;50.884;4.346;2022-11-20T14:08:25;7.55;;;3.25;;
30892;SDS011;17595;50.884;4.346;2022-11-20T14:11:02;9.23;;;4.38;;
30892;SDS011;17595;50.884;4.346;2022-11-20T14:13:38;4.95;;;3.55;;
30892;SDS011;17595;50.884;4.346;2022-11-20T14:16:04;6.75;;;3.40;;
30892;SDS011;17595;50.884;4.346;2022-11-20T14:18:29;7.10;;;3.20;;
30892;SDS011;17595;50.884;4.346;2022-11-20T14:20:55;6.40;;;3.63;;
30892;SDS011;17595;50.884;4.346;2022-11-20T14:23:25;5.45;;;3.25;;
30892;SDS011;17595;50.884;4.346;2022-11-20T14:25:52;5.40;;;3.45;;
30892;SDS011;17595;50.884;4.346;2022-11-20T14:28:28;5.20;;;3.60;;
30892;SDS011;17595;50.884;4.346;2022-11-20T14:30:55;6.15;;;3.58;;
30892;SDS011;17595;50.884;4.346;2022-11-20T14:33:22;7.53;;;3.55;;
30892;SDS011;17595;50.884;4.346;2022-11-20T14:35:54;5.82;;;3.47;;
30892;SDS011;17595;50.884;4.346;2022-11-20T14:38:23;7.03;;;3.92;;
30892;SDS011;17595;50.884;4.346;2022-11-20T14:40:51;10.18;;;6.57;;
30892;SDS011;17595;50.884;4.346;2022-11-20T14:43:18;11.88;;;8.90;;
30892;SDS011;17595;50.884;4.346;2022-11-20T14:45:48;16.00;;;11.95;;
30892;SDS011;17595;50.884;4.346;2022-11-20T14:51:35;9.20;;;5.05;;
30892;SDS011;17595;50.884;4.346;2022-11-20T14:56:40;5.95;;;4.65;;
30892;SDS011;17595;50.884;4.346;2022-11-20T14:59:07;16.23;;;8.23;;
30892;SDS011;17595;50.884;4.346;2022-11-20T15:01:34;5.53;;;3.35;;
30892;SDS011;17595;50.884;4.346;2022-11-20T15:04:08;4.88;;;3.67;;
30892;SDS011;17595;50.884;4.346;2022-11-20T15:06:36;7.05;;;2.90;;
30892;SDS011;17595;50.884;4.346;2022-11-20T15:09:03;4.35;;;2.88;;
30892;SDS011;17595;50.884;4.346;2022-11-20T15:11:33;11.43;;;7.68;;
30892;SDS011;17595;50.884;4.346;2022-11-20T15:14:04;3.55;;;2.65;;
30892;SDS011;17595;50.884;4.346;2022-11-20T15:16:31;5.13;;;2.90;;
30892;SDS011;17595;50.884;4.346;2022-11-20T15:18:58;6.32;;;3.28;;
30892;SDS011;17595;50.884;4.346;2022-11-20T15:21:24;5.40;;;3.72;;
30892;SDS011;17595;50.884;4.346;2022-11-20T15:23:50;5.07;;;3.65;;
30892;SDS011;17595;50.884;4.346;2022-11-20T15:26:26;8.45;;;3.40;;
30892;SDS011;17595;50.884;4.346;2022-11-20T15:28:53;5.80;;;3.70;;
30892;SDS011;17595;50.884;4.346;2022-11-20T15:31:19;6.05;;;3.65;;
30892;SDS011;17595;50.884;4.346;2022-11-20T15:33:47;8.45;;;3.90;;
30892;SDS011;17595;50.884;4.346;2022-11-20T15:36:13;9.07;;;4.10;;
30892;SDS011;17595;50.884;4.346;2022-11-20T15:38:38;8.70;;;3.60;;
30892;SDS011;17595;50.884;4.346;2022-11-20T15:41:04;7.93;;;3.80;;
30892;SDS011;17595;50.884;4.346;2022-11-20T15:43:30;7.53;;;4.00;;
30892;SDS011;17595;50.884;4.346;2022-11-20T15:46:25;4.85;;;3.75;;
30892;SDS011;17595;50.884;4.346;2022-11-20T15:48:45;10.25;;;3.50;;
30892;SDS011;17595;50.884;4.346;2022-11-20T15:53:57;7.20;;;3.13;;
30892;SDS011;17595;50.884;4.346;2022-11-20T15:56:23;9.27;;;3.55;;
30892;SDS011;17595;50.884;4.346;2022-11-20T15:58:49;8.40;;;3.65;;
30892;SDS011;17595;50.884;4.346;2022-11-20T16:01:16;9.70;;;3.90;;
30892;SDS011;17595;50.884;4.346;2022-11-20T16:03:44;8.45;;;3.60;;
30892;SDS011;17595;50.884;4.346;2022-11-20T16:06:09;11.80;;;3.65;;
30892;SDS011;17595;50.884;4.346;2022-11-20T16:08:35;9.70;;;3.40;;
30892;SDS011;17595;50.884;4.346;2022-11-20T16:11:01;14.07;;;4.20;;
30892;SDS011;17595;50.884;4.346;2022-11-20T16:13:31;11.25;;;3.45;;
30892;SDS011;17595;50.884;4.346;2022-11-20T16:16:20;12.25;;;3.60;;
30892;SDS011;17595;50.884;4.346;2022-11-20T16:18:53;16.15;;;4.07;;
30892;SDS011;17595;50.884;4.346;2022-11-20T16:21:19;12.70;;;2.88;;
30892;SDS011;17595;50.884;4.346;2022-11-20T16:23:45;16.08;;;3.50;;
30892;SDS011;17595;50.884;4.346;2022-11-20T16:26:12;12.45;;;2.90;;
30892;SDS011;17595;50.884;4.346;2022-11-20T16:28:39;16.40;;;3.53;;